Suomigracht — PHBT — position and weather

sailwx.info

Track history (hours):
 
Tides and Currents Weather Stations Pressure Air Temp Water Temp Dewpoint Dewpoint Depression Visibility Wind Speed Wind Dir Waves Ship Positions

Suomigracht

Last reported at 2017-Nov-10 21:47 UTC. Time now 2017-Nov-24 22:24 UTC.
Position N 49°10' W 058°24'.
Warning: this ship's position is 14 days out of date.

Length 173 m; beam 26 m.

Type: Cargo ship. MMSI: 246100000.

Date/timePositionNaut miles runAvg speedWind from/ knotsBaromVisibWave heightAir tempDewpointWater temp
2017-Nov-10 21:47N 49°10' W 058°24'2 8.3
2017-Nov-10 21:30N 49°09' W 058°20'5 9.1
2017-Nov-10 21:00N 49°06' W 058°15'4 7.7
2017-Nov-10 20:30N 49°04' W 058°10'3 6.6
2017-Nov-10 20:00N 49°02' W 058°07'3 6.0
2017-Nov-10 19:30N 48°59' W 058°04'4 7.9
2017-Nov-10 19:00N 48°58' W 057°59'1 2.4
2017-Nov-10 18:30N 48°57' W 057°57'0 0.0
2017-Nov-10 18:00N 48°57' W 057°57'0 0.0
2017-Nov-10 17:30N 48°57' W 057°57'0 0.0
2017-Nov-10 17:00N 48°57' W 057°57'0 0.0
2017-Nov-10 16:30N 48°57' W 057°57'0 0.0
2017-Nov-10 16:00N 48°57' W 057°57'0 0.0
2017-Nov-10 15:30N 48°57' W 057°57'0 0.0
2017-Nov-10 15:00N 48°57' W 057°57'0 0.0
2017-Nov-10 14:30N 48°57' W 057°57'0 0.0
2017-Nov-10 14:00N 48°57' W 057°57'0 0.0
2017-Nov-10 13:30N 48°57' W 057°57'0 0.0
2017-Nov-10 13:00N 48°57' W 057°57'0 0.0
2017-Nov-10 12:30N 48°57' W 057°57'0 0.0
2017-Nov-10 12:00N 48°57' W 057°57'0 0.0
2017-Nov-10 11:30N 48°57' W 057°57'0 0.0
2017-Nov-10 11:00N 48°57' W 057°57'0 0.0
2017-Nov-10 10:24N 48°57' W 057°57'0 0.0
2017-Nov-10 10:00N 48°57' W 057°57'0 0.0
2017-Nov-10 09:30N 48°57' W 057°57'0 0.0
2017-Nov-10 09:00N 48°57' W 057°57'0 0.0
2017-Nov-10 08:30N 48°57' W 057°57'0 0.0
2017-Nov-10 07:59N 48°57' W 057°57'0 0.0
2017-Nov-10 07:29N 48°57' W 057°57'0 0.0
2017-Nov-10 06:59N 48°57' W 057°57'0 0.0
2017-Nov-10 06:29N 48°57' W 057°57'0 0.0
2017-Nov-10 05:59N 48°57' W 057°57'0 0.0
2017-Nov-10 05:29N 48°57' W 057°57'0 0.0
2017-Nov-10 04:59N 48°57' W 057°57'0 0.0
2017-Nov-10 04:29N 48°57' W 057°57'0 0.0
2017-Nov-10 03:59N 48°57' W 057°57'0 0.0
2017-Nov-10 03:29N 48°57' W 057°57'0 0.0
2017-Nov-10 02:59N 48°57' W 057°57'0 0.0
2017-Nov-10 02:29N 48°57' W 057°57'0 0.0
2017-Nov-10 01:59N 48°57' W 057°57'0 0.0
2017-Nov-10 01:29N 48°57' W 057°57'0 0.0
2017-Nov-10 00:59N 48°57' W 057°57'0 0.0
2017-Nov-10 00:29N 48°57' W 057°57'0 0.0
2017-Nov-09 23:59N 48°57' W 057°57'0 0.0
2017-Nov-09 23:29N 48°57' W 057°57'0 0.0
2017-Nov-09 22:59N 48°57' W 057°57'0 0.0
2017-Nov-09 22:29N 48°57' W 057°57'0 0.0
2017-Nov-09 21:59N 48°57' W 057°57'0 0.0
2017-Nov-09 21:29N 48°57' W 057°57'0 0.0
2017-Nov-09 20:59N 48°57' W 057°57'0 0.0
2017-Nov-09 20:29N 48°57' W 057°57'0 0.0
2017-Nov-09 19:59N 48°57' W 057°57'0 0.0
2017-Nov-09 19:29N 48°57' W 057°57'0 0.0
2017-Nov-09 18:59N 48°57' W 057°57'0 0.0
2017-Nov-09 18:29N 48°57' W 057°57'0 0.0
2017-Nov-09 17:59N 48°57' W 057°57'0 0.0
2017-Nov-09 17:29N 48°57' W 057°57'0 0.0
2017-Nov-09 16:59N 48°57' W 057°57'0 0.0
2017-Nov-09 16:29N 48°57' W 057°57'0 0.0
2017-Nov-09 15:59N 48°57' W 057°57'0 0.0
2017-Nov-09 15:29N 48°57' W 057°57'0 0.0
2017-Nov-09 14:59N 48°57' W 057°57'0 0.0
2017-Nov-09 14:29N 48°57' W 057°57'0 0.0
2017-Nov-09 13:59N 48°57' W 057°57'0 0.0
2017-Nov-09 13:29N 48°57' W 057°57'0 0.0
2017-Nov-09 12:59N 48°57' W 057°57'0 0.0
2017-Nov-09 12:29N 48°57' W 057°57'0 0.0
2017-Nov-09 11:59N 48°57' W 057°57'0 0.0
2017-Nov-09 11:29N 48°57' W 057°57'0 0.0
2017-Nov-09 10:59N 48°57' W 057°57'0 0.0
2017-Nov-09 10:29N 48°57' W 057°57'0 0.0
2017-Nov-09 09:59N 48°57' W 057°57'0 0.0
2017-Nov-09 09:29N 48°57' W 057°57'0 0.0
2017-Nov-09 08:59N 48°57' W 057°57'0 0.0
2017-Nov-09 08:29N 48°57' W 057°57'0 0.0
2017-Nov-09 07:59N 48°57' W 057°57'0 0.0
2017-Nov-09 07:29N 48°57' W 057°57'0 0.0
2017-Nov-09 06:59N 48°57' W 057°57'0 0.0
2017-Nov-09 06:29N 48°57' W 057°57'0 0.0
2017-Nov-09 05:59N 48°57' W 057°57'0 0.0
2017-Nov-09 05:29N 48°57' W 057°57'0 0.0
2017-Nov-09 04:59N 48°57' W 057°57'0 0.0
2017-Nov-09 04:29N 48°57' W 057°57'0 0.0
2017-Nov-09 03:59N 48°57' W 057°57'0 0.0
2017-Nov-09 03:29N 48°57' W 057°57'0 0.0
2017-Nov-09 02:59N 48°57' W 057°57'0 0.0
2017-Nov-09 02:29N 48°57' W 057°57'0 0.0
2017-Nov-09 01:59N 48°57' W 057°57'0 0.0
2017-Nov-09 01:29N 48°57' W 057°57'0 0.0
2017-Nov-09 00:59N 48°57' W 057°57'0 0.0
2017-Nov-09 00:29N 48°57' W 057°57'0 0.0
2017-Nov-08 23:59N 48°57' W 057°57'0 0.0
2017-Nov-08 23:29N 48°57' W 057°57'0 0.0
2017-Nov-08 22:59N 48°57' W 057°57'0 0.0
2017-Nov-08 22:29N 48°57' W 057°57'0 0.0
2017-Nov-08 21:59N 48°57' W 057°57'0 0.0
2017-Nov-08 21:29N 48°57' W 057°57'0 0.0
2017-Nov-08 20:59N 48°57' W 057°57'0 0.0
2017-Nov-08 20:29N 48°57' W 057°57'0 0.0
2017-Nov-08 19:59N 48°57' W 057°57'0 0.0
2017-Nov-08 19:29N 48°57' W 057°57'0 0.0
2017-Nov-08 18:58N 48°57' W 057°57'0 0.0
2017-Nov-08 18:28N 48°57' W 057°57'0 0.0
2017-Nov-08 17:58N 48°57' W 057°57'0 0.0
2017-Nov-08 17:28N 48°57' W 057°57'0 0.0
2017-Nov-08 16:58N 48°57' W 057°57'0 0.0
2017-Nov-08 16:28N 48°57' W 057°57'0 0.0
2017-Nov-08 15:58N 48°57' W 057°57'0 0.0
2017-Nov-08 15:28N 48°57' W 057°57'0 0.0
2017-Nov-08 14:58N 48°57' W 057°57'0 0.0
2017-Nov-08 14:28N 48°57' W 057°57'0 0.0
2017-Nov-08 13:58N 48°57' W 057°57'0 0.0
2017-Nov-08 13:28N 48°57' W 057°57'0 0.0
2017-Nov-08 12:58N 48°57' W 057°57'0 0.0
2017-Nov-08 12:28N 48°57' W 057°57'0 0.0
2017-Nov-08 11:58N 48°57' W 057°57'0 0.0
2017-Nov-08 11:28N 48°57' W 057°57'0 0.0
2017-Nov-08 10:58N 48°57' W 057°57'0 0.0
2017-Nov-08 10:28N 48°57' W 057°57'0 0.0
2017-Nov-08 09:58N 48°57' W 057°57'0 0.0
2017-Nov-08 09:28N 48°57' W 057°57'0 0.0
2017-Nov-08 08:58N 48°57' W 057°57'0 0.0
2017-Nov-08 08:28N 48°57' W 057°57'0 0.0
2017-Nov-08 07:58N 48°57' W 057°57'0 0.0
2017-Nov-08 07:28N 48°57' W 057°57'0 0.0
2017-Nov-08 06:58N 48°57' W 057°57'0 0.0
2017-Nov-08 06:28N 48°57' W 057°57'0 0.0
2017-Nov-08 05:58N 48°57' W 057°57'0 0.0
2017-Nov-08 05:28N 48°57' W 057°57'0 0.0
2017-Nov-08 04:58N 48°57' W 057°57'0 0.0
2017-Nov-08 04:28N 48°57' W 057°57'0 0.0
2017-Nov-08 03:58N 48°57' W 057°57'0 0.0
2017-Nov-08 03:28N 48°57' W 057°57'0 0.0
2017-Nov-08 02:58N 48°57' W 057°57'0 0.0
2017-Nov-08 02:28N 48°57' W 057°57'0 0.0
2017-Nov-08 01:58N 48°57' W 057°57'0 0.0
2017-Nov-08 01:25N 48°57' W 057°57'0 0.0
2017-Nov-08 00:58N 48°57' W 057°57'0 0.0
2017-Nov-08 00:28N 48°57' W 057°57'0 0.0
2017-Nov-07 23:58N 48°57' W 057°57'0 0.0
2017-Nov-07 23:28N 48°57' W 057°57'0 0.0
2017-Nov-07 22:58N 48°57' W 057°57'0 0.0
2017-Nov-07 22:28N 48°57' W 057°57'0 0.0
2017-Nov-07 21:58N 48°57' W 057°57'0 0.0
2017-Nov-07 21:28N 48°57' W 057°57'0 0.0
2017-Nov-07 20:58N 48°57' W 057°57'0 0.0
2017-Nov-07 20:28N 48°57' W 057°57'0 0.0
2017-Nov-07 19:58N 48°57' W 057°57'0 0.0
2017-Nov-07 19:28N 48°57' W 057°57'0 0.0
2017-Nov-07 18:58N 48°57' W 057°57'0 0.0
2017-Nov-07 18:28N 48°57' W 057°57'0 0.0
2017-Nov-07 17:58N 48°57' W 057°57'0 0.0
2017-Nov-07 17:28N 48°57' W 057°57'0 0.0
2017-Nov-07 16:58N 48°57' W 057°57'0 0.0
2017-Nov-07 16:28N 48°57' W 057°57'0 0.0
2017-Nov-07 15:58N 48°57' W 057°57'0 0.0
2017-Nov-07 15:25N 48°57' W 057°57'0 0.0
2017-Nov-07 14:58N 48°57' W 057°57'0 0.0
2017-Nov-07 14:28N 48°57' W 057°57'0 0.0
2017-Nov-07 13:58N 48°57' W 057°57'0 0.0
2017-Nov-07 13:28N 48°57' W 057°57'0 0.0
2017-Nov-07 12:58N 48°57' W 057°57'0 0.0
2017-Nov-07 12:28N 48°57' W 057°57'0 0.0
2017-Nov-07 11:58N 48°57' W 057°57'0 0.0
2017-Nov-07 11:22N 48°57' W 057°57'0 0.0
2017-Nov-07 10:58N 48°57' W 057°57'0 0.0
2017-Nov-07 10:28N 48°57' W 057°57'0 0.0
2017-Nov-07 09:58N 48°57' W 057°57'0 0.0
2017-Nov-07 09:28N 48°57' W 057°57'0 0.0
2017-Nov-07 08:58N 48°57' W 057°57'0 0.0
2017-Nov-07 08:28N 48°57' W 057°57'0 0.0
2017-Nov-07 07:58N 48°57' W 057°57'0 0.0
2017-Nov-07 07:28N 48°57' W 057°57'0 0.0
2017-Nov-07 06:58N 48°57' W 057°57'0 0.0
2017-Nov-07 06:31N 48°57' W 057°57'0 0.0
2017-Nov-07 06:01N 48°57' W 057°57'0 0.0
2017-Nov-07 05:30N 48°57' W 057°57'0 0.0
2017-Nov-07 05:00N 48°57' W 057°57'0 0.0
2017-Nov-07 04:30N 48°57' W 057°57'0 0.0
2017-Nov-07 03:57N 48°57' W 057°57'0 0.0
2017-Nov-07 03:30N 48°57' W 057°57'0 0.0
2017-Nov-07 03:00N 48°57' W 057°57'0 0.0
2017-Nov-07 02:30N 48°57' W 057°57'0 0.0
2017-Nov-07 02:00N 48°57' W 057°57'0 0.0
2017-Nov-07 01:30N 48°57' W 057°57'0 0.0
2017-Nov-07 01:00N 48°57' W 057°57'0 0.0
2017-Nov-07 00:30N 48°57' W 057°57'0 0.0
2017-Nov-07 00:00N 48°57' W 057°57'0 0.0
2017-Nov-06 23:30N 48°57' W 057°57'0 0.0
2017-Nov-06 23:00N 48°57' W 057°57'0 0.0
2017-Nov-06 22:30N 48°57' W 057°57'0 0.0
2017-Nov-06 22:00N 48°57' W 057°57'0 0.0
2017-Nov-06 21:30N 48°57' W 057°57'0 0.0
2017-Nov-06 21:00N 48°57' W 057°57'0 0.0
2017-Nov-06 20:30N 48°57' W 057°57'0 0.0
2017-Nov-06 02:30N 48°57' W 057°57'0 0.0
2017-Nov-06 02:00N 48°57' W 057°57'0 0.0
2017-Nov-06 01:30N 48°57' W 057°57'0 0.0
2017-Nov-06 01:00N 48°57' W 057°57'0 0.0
2017-Nov-06 00:30N 48°57' W 057°57'0 0.0
2017-Nov-06 00:00N 48°57' W 057°57'0 0.0
2017-Nov-05 23:30N 48°57' W 057°57'0 0.0
2017-Nov-05 23:00N 48°57' W 057°57'0 0.0
2017-Nov-05 22:30N 48°57' W 057°57'0 0.0
2017-Nov-05 22:00N 48°57' W 057°57'0 0.0
2017-Nov-05 21:30N 48°57' W 057°57'0 0.0
2017-Nov-05 21:00N 48°57' W 057°57'0 0.0
2017-Nov-05 20:30N 48°57' W 057°57'0 0.0
2017-Nov-05 20:00N 48°57' W 057°57'0 0.0
2017-Nov-05 19:30N 48°57' W 057°57'0 0.0
2017-Nov-05 19:00N 48°57' W 057°57'0 0.0
2017-Nov-05 18:30N 48°57' W 057°57'0 0.0
2017-Nov-05 18:00N 48°57' W 057°57'0 0.0
2017-Nov-05 17:30N 48°57' W 057°57'0 0.0
2017-Nov-05 17:00N 48°57' W 057°57'0 0.0
2017-Nov-05 16:29N 48°57' W 057°57'0 0.0
2017-Nov-05 15:59N 48°57' W 057°57'0 0.0
2017-Nov-05 15:29N 48°57' W 057°57'0 0.0
2017-Nov-05 14:59N 48°57' W 057°57'0 0.0
2017-Nov-05 14:29N 48°57' W 057°57'0 0.0
2017-Nov-05 13:56N 48°57' W 057°57'0 0.0
2017-Nov-05 13:26N 48°57' W 057°57'0 0.0
2017-Nov-05 12:59N 48°57' W 057°57'0 0.0
2017-Nov-05 12:29N 48°57' W 057°57'0 0.0
2017-Nov-05 11:56N 48°57' W 057°57'0 0.0
2017-Nov-05 11:29N 48°57' W 057°57'0 0.0
2017-Nov-05 10:59N 48°57' W 057°57'0 0.0
2017-Nov-05 10:29N 48°57' W 057°57'0 0.0
2017-Nov-05 09:59N 48°57' W 057°57'0 0.0
2017-Nov-05 09:29N 48°57' W 057°57'0 0.0
2017-Nov-05 08:59N 48°57' W 057°57'0 0.0
2017-Nov-05 08:29N 48°57' W 057°57'0 0.0
2017-Nov-05 07:59N 48°57' W 057°57'0 0.0
2017-Nov-05 07:29N 48°57' W 057°57'0 0.0
2017-Nov-05 06:59N 48°57' W 057°57'0 0.0
2017-Nov-05 06:29N 48°57' W 057°57'0 0.0
2017-Nov-05 05:59N 48°57' W 057°57'0 0.0
2017-Nov-05 05:29N 48°57' W 057°57'0 0.0
2017-Nov-05 04:59N 48°57' W 057°57'0 0.0
2017-Nov-05 04:29N 48°57' W 057°57'0 0.0
2017-Nov-05 03:59N 48°57' W 057°57'0 0.0
2017-Nov-05 03:29N 48°57' W 057°57'0 0.0
2017-Nov-05 02:59N 48°57' W 057°57'0 0.0
2017-Nov-05 02:29N 48°57' W 057°57'0 0.0
2017-Nov-05 01:59N 48°57' W 057°57'0 0.0
2017-Nov-05 01:29N 48°57' W 057°57'0 0.0
2017-Nov-05 00:59N 48°57' W 057°57'0 0.0
2017-Nov-05 00:29N 48°57' W 057°57'0 0.0
2017-Nov-04 23:59N 48°57' W 057°57'0 0.0
2017-Nov-04 23:29N 48°57' W 057°57'0 0.0
2017-Nov-04 22:59N 48°57' W 057°57'0 0.0
2017-Nov-04 22:29N 48°57' W 057°57'0 0.0
2017-Nov-04 21:59N 48°57' W 057°57'0 0.0
2017-Nov-04 21:29N 48°57' W 057°57'0 0.0
2017-Nov-04 20:59N 48°57' W 057°57'0 0.0
2017-Nov-04 20:29N 48°57' W 057°57'0 0.0
2017-Nov-04 19:59N 48°57' W 057°57'0 0.0
2017-Nov-04 19:29N 48°57' W 057°57'0 0.0
2017-Nov-04 18:59N 48°57' W 057°57'0 0.0
2017-Nov-04 18:29N 48°57' W 057°57'0 0.0
2017-Nov-04 17:59N 48°57' W 057°57'0 0.0
2017-Nov-04 17:29N 48°57' W 057°57'0 0.0
2017-Nov-04 16:59N 48°57' W 057°57'0 0.0
2017-Nov-04 16:29N 48°57' W 057°57'0 0.0
2017-Nov-04 15:59N 48°57' W 057°57'0 0.0
2017-Nov-04 15:29N 48°57' W 057°57'0 0.0
2017-Nov-04 14:59N 48°57' W 057°57'0 0.0
2017-Nov-04 14:29N 48°57' W 057°57'0 0.0
2017-Nov-04 13:59N 48°57' W 057°57'0 0.0
2017-Nov-04 13:29N 48°57' W 057°57'0 0.0
2017-Nov-04 12:59N 48°57' W 057°57'0 0.0
2017-Nov-04 12:29N 48°57' W 057°57'0 0.0
2017-Nov-04 11:59N 48°57' W 057°57'0 0.0
2017-Nov-04 11:29N 48°57' W 057°57'0 0.0
2017-Nov-04 10:59N 48°57' W 057°57'0 0.0
2017-Nov-04 10:29N 48°57' W 057°57'0 0.0
2017-Nov-04 09:59N 48°57' W 057°57'0 0.0
2017-Nov-04 09:29N 48°57' W 057°57'0 0.0
2017-Nov-04 08:59N 48°57' W 057°57'0 0.0
2017-Nov-04 08:29N 48°57' W 057°57'0 0.0
2017-Nov-04 07:59N 48°57' W 057°57'0 0.0
2017-Nov-04 07:29N 48°57' W 057°57'0 0.0
2017-Nov-04 06:59N 48°57' W 057°57'0 0.0
2017-Nov-04 06:29N 48°57' W 057°57'0 0.0
2017-Nov-04 05:59N 48°57' W 057°57'0 0.0
2017-Nov-04 05:29N 48°57' W 057°57'0 0.0
2017-Nov-04 04:59N 48°57' W 057°57'0 0.0
2017-Nov-04 04:29N 48°57' W 057°57'0 0.0
2017-Nov-04 03:59N 48°57' W 057°57'0 0.0
2017-Nov-04 03:28N 48°57' W 057°57'0 0.0
2017-Nov-04 02:58N 48°57' W 057°57'0 0.0
2017-Nov-04 02:28N 48°57' W 057°57'0 0.0
2017-Nov-04 01:58N 48°57' W 057°57'0 0.0
2017-Nov-04 01:28N 48°57' W 057°57'0 0.0
2017-Nov-04 00:58N 48°57' W 057°57'0 0.0
2017-Nov-04 00:28N 48°57' W 057°57'0 0.0
2017-Nov-03 23:58N 48°57' W 057°57'0 0.0
2017-Nov-03 23:28N 48°57' W 057°57'0 0.0
2017-Nov-03 22:58N 48°57' W 057°57'0 0.0
2017-Nov-03 22:28N 48°57' W 057°57'0 0.0
2017-Nov-03 21:58N 48°57' W 057°57'0 0.0
2017-Nov-03 21:28N 48°57' W 057°57'0 0.0
2017-Nov-03 20:58N 48°57' W 057°57'0 0.0
2017-Nov-03 20:28N 48°57' W 057°57'0 0.0
2017-Nov-03 19:58N 48°57' W 057°57'0 0.0
2017-Nov-03 19:28N 48°57' W 057°57'0 0.0
2017-Nov-03 18:58N 48°57' W 057°57'0 0.0
2017-Nov-03 18:25N 48°57' W 057°57'0 0.0
2017-Nov-03 17:58N 48°57' W 057°57'0 0.0
2017-Nov-03 17:28N 48°57' W 057°57'0 0.0
2017-Nov-03 16:58N 48°57' W 057°57'0 0.0
2017-Nov-03 16:25N 48°57' W 057°57'0 0.0
2017-Nov-03 15:58N 48°57' W 057°57'0 0.0
2017-Nov-03 15:28N 48°57' W 057°57'0 0.0
2017-Nov-03 14:58N 48°57' W 057°57'0 0.0
2017-Nov-03 14:28N 48°57' W 057°57'0 0.0
2017-Nov-03 13:55N 48°57' W 057°57'0 0.0
2017-Nov-03 13:28N 48°57' W 057°57'0 0.0
2017-Nov-03 12:58N 48°57' W 057°57'0 0.0
2017-Nov-03 12:25N 48°57' W 057°57'0 0.0
2017-Nov-03 11:55N 48°57' W 057°57'0 0.0
2017-Nov-03 11:28N 48°57' W 057°57'0 0.0
2017-Nov-03 11:00N 48°57' W 057°57'0 0.5
2017-Nov-03 10:30N 48°58' W 057°57'3 6.9
2017-Nov-03 10:01N 48°59' W 058°02'611.4
2017-Nov-03 09:30N 49°03' W 058°08'510.9
2017-Nov-03 09:00N 49°06' W 058°15'611.9
2017-Nov-03 08:30N 49°10' W 058°22'  
Track history (hours):
 
Tides and Currents Weather Stations Pressure Air Temp Water Temp Dewpoint Dewpoint Depression Visibility Wind Speed Wind Dir Waves Ship Positions

Suomigracht

Last reported at 2017-Nov-10 21:47 UTC. Time now 2017-Nov-24 22:24 UTC.
Position N 49°10' W 058°24'.
Warning: this ship's position is 14 days out of date.

Length 173 m; beam 26 m.

Type: Cargo ship. MMSI: 246100000.

Date/timePositionNaut miles runAvg speedWind from/ knotsBaromVisibWave heightAir tempDewpointWater temp
2017-Nov-10 21:47N 49°10' W 058°24'2 8.3
2017-Nov-10 21:30N 49°09' W 058°20'5 9.1
2017-Nov-10 21:00N 49°06' W 058°15'4 7.7
2017-Nov-10 20:30N 49°04' W 058°10'3 6.6
2017-Nov-10 20:00N 49°02' W 058°07'3 6.0
2017-Nov-10 19:30N 48°59' W 058°04'4 7.9
2017-Nov-10 19:00N 48°58' W 057°59'1 2.4
2017-Nov-10 18:30N 48°57' W 057°57'0 0.0
2017-Nov-10 18:00N 48°57' W 057°57'0 0.0
2017-Nov-10 17:30N 48°57' W 057°57'0 0.0
2017-Nov-10 17:00N 48°57' W 057°57'0 0.0
2017-Nov-10 16:30N 48°57' W 057°57'0 0.0
2017-Nov-10 16:00N 48°57' W 057°57'0 0.0
2017-Nov-10 15:30N 48°57' W 057°57'0 0.0
2017-Nov-10 15:00N 48°57' W 057°57'0 0.0
2017-Nov-10 14:30N 48°57' W 057°57'0 0.0
2017-Nov-10 14:00N 48°57' W 057°57'0 0.0
2017-Nov-10 13:30N 48°57' W 057°57'0 0.0
2017-Nov-10 13:00N 48°57' W 057°57'0 0.0
2017-Nov-10 12:30N 48°57' W 057°57'0 0.0
2017-Nov-10 12:00N 48°57' W 057°57'0 0.0
2017-Nov-10 11:30N 48°57' W 057°57'0 0.0
2017-Nov-10 11:00N 48°57' W 057°57'0 0.0
2017-Nov-10 10:24N 48°57' W 057°57'0 0.0
2017-Nov-10 10:00N 48°57' W 057°57'0 0.0
2017-Nov-10 09:30N 48°57' W 057°57'0 0.0
2017-Nov-10 09:00N 48°57' W 057°57'0 0.0
2017-Nov-10 08:30N 48°57' W 057°57'0 0.0
2017-Nov-10 07:59N 48°57' W 057°57'0 0.0
2017-Nov-10 07:29N 48°57' W 057°57'0 0.0
2017-Nov-10 06:59N 48°57' W 057°57'0 0.0
2017-Nov-10 06:29N 48°57' W 057°57'0 0.0
2017-Nov-10 05:59N 48°57' W 057°57'0 0.0
2017-Nov-10 05:29N 48°57' W 057°57'0 0.0
2017-Nov-10 04:59N 48°57' W 057°57'0 0.0
2017-Nov-10 04:29N 48°57' W 057°57'0 0.0
2017-Nov-10 03:59N 48°57' W 057°57'0 0.0
2017-Nov-10 03:29N 48°57' W 057°57'0 0.0
2017-Nov-10 02:59N 48°57' W 057°57'0 0.0
2017-Nov-10 02:29N 48°57' W 057°57'0 0.0
2017-Nov-10 01:59N 48°57' W 057°57'0 0.0
2017-Nov-10 01:29N 48°57' W 057°57'0 0.0
2017-Nov-10 00:59N 48°57' W 057°57'0 0.0
2017-Nov-10 00:29N 48°57' W 057°57'0 0.0
2017-Nov-09 23:59N 48°57' W 057°57'0 0.0
2017-Nov-09 23:29N 48°57' W 057°57'0 0.0
2017-Nov-09 22:59N 48°57' W 057°57'0 0.0
2017-Nov-09 22:29N 48°57' W 057°57'0 0.0
2017-Nov-09 21:59N 48°57' W 057°57'0 0.0
2017-Nov-09 21:29N 48°57' W 057°57'0 0.0
2017-Nov-09 20:59N 48°57' W 057°57'0 0.0
2017-Nov-09 20:29N 48°57' W 057°57'0 0.0
2017-Nov-09 19:59N 48°57' W 057°57'0 0.0
2017-Nov-09 19:29N 48°57' W 057°57'0 0.0
2017-Nov-09 18:59N 48°57' W 057°57'0 0.0
2017-Nov-09 18:29N 48°57' W 057°57'0 0.0
2017-Nov-09 17:59N 48°57' W 057°57'0 0.0
2017-Nov-09 17:29N 48°57' W 057°57'0 0.0
2017-Nov-09 16:59N 48°57' W 057°57'0 0.0
2017-Nov-09 16:29N 48°57' W 057°57'0 0.0
2017-Nov-09 15:59N 48°57' W 057°57'0 0.0
2017-Nov-09 15:29N 48°57' W 057°57'0 0.0
2017-Nov-09 14:59N 48°57' W 057°57'0 0.0
2017-Nov-09 14:29N 48°57' W 057°57'0 0.0
2017-Nov-09 13:59N 48°57' W 057°57'0 0.0
2017-Nov-09 13:29N 48°57' W 057°57'0 0.0
2017-Nov-09 12:59N 48°57' W 057°57'0 0.0
2017-Nov-09 12:29N 48°57' W 057°57'0 0.0
2017-Nov-09 11:59N 48°57' W 057°57'0 0.0
2017-Nov-09 11:29N 48°57' W 057°57'0 0.0
2017-Nov-09 10:59N 48°57' W 057°57'0 0.0
2017-Nov-09 10:29N 48°57' W 057°57'0 0.0
2017-Nov-09 09:59N 48°57' W 057°57'0 0.0
2017-Nov-09 09:29N 48°57' W 057°57'0 0.0
2017-Nov-09 08:59N 48°57' W 057°57'0 0.0
2017-Nov-09 08:29N 48°57' W 057°57'0 0.0
2017-Nov-09 07:59N 48°57' W 057°57'0 0.0
2017-Nov-09 07:29N 48°57' W 057°57'0 0.0
2017-Nov-09 06:59N 48°57' W 057°57'0 0.0
2017-Nov-09 06:29N 48°57' W 057°57'0 0.0
2017-Nov-09 05:59N 48°57' W 057°57'0 0.0
2017-Nov-09 05:29N 48°57' W 057°57'0 0.0
2017-Nov-09 04:59N 48°57' W 057°57'0 0.0
2017-Nov-09 04:29N 48°57' W 057°57'0 0.0
2017-Nov-09 03:59N 48°57' W 057°57'0 0.0
2017-Nov-09 03:29N 48°57' W 057°57'0 0.0
2017-Nov-09 02:59N 48°57' W 057°57'0 0.0
2017-Nov-09 02:29N 48°57' W 057°57'0 0.0
2017-Nov-09 01:59N 48°57' W 057°57'0 0.0
2017-Nov-09 01:29N 48°57' W 057°57'0 0.0
2017-Nov-09 00:59N 48°57' W 057°57'0 0.0
2017-Nov-09 00:29N 48°57' W 057°57'0 0.0
2017-Nov-08 23:59N 48°57' W 057°57'0 0.0
2017-Nov-08 23:29N 48°57' W 057°57'0 0.0
2017-Nov-08 22:59N 48°57' W 057°57'0 0.0
2017-Nov-08 22:29N 48°57' W 057°57'0 0.0
2017-Nov-08 21:59N 48°57' W 057°57'0 0.0
2017-Nov-08 21:29N 48°57' W 057°57'0 0.0
2017-Nov-08 20:59N 48°57' W 057°57'0 0.0
2017-Nov-08 20:29N 48°57' W 057°57'0 0.0
2017-Nov-08 19:59N 48°57' W 057°57'0 0.0
2017-Nov-08 19:29N 48°57' W 057°57'0 0.0
2017-Nov-08 18:58N 48°57' W 057°57'0 0.0
2017-Nov-08 18:28N 48°57' W 057°57'0 0.0
2017-Nov-08 17:58N 48°57' W 057°57'0 0.0
2017-Nov-08 17:28N 48°57' W 057°57'0 0.0
2017-Nov-08 16:58N 48°57' W 057°57'0 0.0
2017-Nov-08 16:28N 48°57' W 057°57'0 0.0
2017-Nov-08 15:58N 48°57' W 057°57'0 0.0
2017-Nov-08 15:28N 48°57' W 057°57'0 0.0
2017-Nov-08 14:58N 48°57' W 057°57'0 0.0
2017-Nov-08 14:28N 48°57' W 057°57'0 0.0
2017-Nov-08 13:58N 48°57' W 057°57'0 0.0
2017-Nov-08 13:28N 48°57' W 057°57'0 0.0
2017-Nov-08 12:58N 48°57' W 057°57'0 0.0
2017-Nov-08 12:28N 48°57' W 057°57'0 0.0
2017-Nov-08 11:58N 48°57' W 057°57'0 0.0
2017-Nov-08 11:28N 48°57' W 057°57'0 0.0
2017-Nov-08 10:58N 48°57' W 057°57'0 0.0
2017-Nov-08 10:28N 48°57' W 057°57'0 0.0
2017-Nov-08 09:58N 48°57' W 057°57'0 0.0
2017-Nov-08 09:28N 48°57' W 057°57'0 0.0
2017-Nov-08 08:58N 48°57' W 057°57'0 0.0
2017-Nov-08 08:28N 48°57' W 057°57'0 0.0
2017-Nov-08 07:58N 48°57' W 057°57'0 0.0
2017-Nov-08 07:28N 48°57' W 057°57'0 0.0
2017-Nov-08 06:58N 48°57' W 057°57'0 0.0
2017-Nov-08 06:28N 48°57' W 057°57'0 0.0
2017-Nov-08 05:58N 48°57' W 057°57'0 0.0
2017-Nov-08 05:28N 48°57' W 057°57'0 0.0
2017-Nov-08 04:58N 48°57' W 057°57'0 0.0
2017-Nov-08 04:28N 48°57' W 057°57'0 0.0
2017-Nov-08 03:58N 48°57' W 057°57'0 0.0
2017-Nov-08 03:28N 48°57' W 057°57'0 0.0
2017-Nov-08 02:58N 48°57' W 057°57'0 0.0
2017-Nov-08 02:28N 48°57' W 057°57'0 0.0
2017-Nov-08 01:58N 48°57' W 057°57'0 0.0
2017-Nov-08 01:25N 48°57' W 057°57'0 0.0
2017-Nov-08 00:58N 48°57' W 057°57'0 0.0
2017-Nov-08 00:28N 48°57' W 057°57'0 0.0
2017-Nov-07 23:58N 48°57' W 057°57'0 0.0
2017-Nov-07 23:28N 48°57' W 057°57'0 0.0
2017-Nov-07 22:58N 48°57' W 057°57'0 0.0
2017-Nov-07 22:28N 48°57' W 057°57'0 0.0
2017-Nov-07 21:58N 48°57' W 057°57'0 0.0
2017-Nov-07 21:28N 48°57' W 057°57'0 0.0
2017-Nov-07 20:58N 48°57' W 057°57'0 0.0
2017-Nov-07 20:28N 48°57' W 057°57'0 0.0
2017-Nov-07 19:58N 48°57' W 057°57'0 0.0
2017-Nov-07 19:28N 48°57' W 057°57'0 0.0
2017-Nov-07 18:58N 48°57' W 057°57'0 0.0
2017-Nov-07 18:28N 48°57' W 057°57'0 0.0
2017-Nov-07 17:58N 48°57' W 057°57'0 0.0
2017-Nov-07 17:28N 48°57' W 057°57'0 0.0
2017-Nov-07 16:58N 48°57' W 057°57'0 0.0
2017-Nov-07 16:28N 48°57' W 057°57'0 0.0
2017-Nov-07 15:58N 48°57' W 057°57'0 0.0
2017-Nov-07 15:25N 48°57' W 057°57'0 0.0
2017-Nov-07 14:58N 48°57' W 057°57'0 0.0
2017-Nov-07 14:28N 48°57' W 057°57'0 0.0
2017-Nov-07 13:58N 48°57' W 057°57'0 0.0
2017-Nov-07 13:28N 48°57' W 057°57'0 0.0
2017-Nov-07 12:58N 48°57' W 057°57'0 0.0
2017-Nov-07 12:28N 48°57' W 057°57'0 0.0
2017-Nov-07 11:58N 48°57' W 057°57'0 0.0
2017-Nov-07 11:22N 48°57' W 057°57'0 0.0
2017-Nov-07 10:58N 48°57' W 057°57'0 0.0
2017-Nov-07 10:28N 48°57' W 057°57'0 0.0
2017-Nov-07 09:58N 48°57' W 057°57'0 0.0
2017-Nov-07 09:28N 48°57' W 057°57'0 0.0
2017-Nov-07 08:58N 48°57' W 057°57'0 0.0
2017-Nov-07 08:28N 48°57' W 057°57'0 0.0
2017-Nov-07 07:58N 48°57' W 057°57'0 0.0
2017-Nov-07 07:28N 48°57' W 057°57'0 0.0
2017-Nov-07 06:58N 48°57' W 057°57'0 0.0
2017-Nov-07 06:31N 48°57' W 057°57'0 0.0
2017-Nov-07 06:01N 48°57' W 057°57'0 0.0
2017-Nov-07 05:30N 48°57' W 057°57'0 0.0
2017-Nov-07 05:00N 48°57' W 057°57'0 0.0
2017-Nov-07 04:30N 48°57' W 057°57'0 0.0
2017-Nov-07 03:57N 48°57' W 057°57'0 0.0
2017-Nov-07 03:30N 48°57' W 057°57'0 0.0
2017-Nov-07 03:00N 48°57' W 057°57'0 0.0
2017-Nov-07 02:30N 48°57' W 057°57'0 0.0
2017-Nov-07 02:00N 48°57' W 057°57'0 0.0
2017-Nov-07 01:30N 48°57' W 057°57'0 0.0
2017-Nov-07 01:00N 48°57' W 057°57'0 0.0
2017-Nov-07 00:30N 48°57' W 057°57'0 0.0
2017-Nov-07 00:00N 48°57' W 057°57'0 0.0
2017-Nov-06 23:30N 48°57' W 057°57'0 0.0
2017-Nov-06 23:00N 48°57' W 057°57'0 0.0
2017-Nov-06 22:30N 48°57' W 057°57'0 0.0
2017-Nov-06 22:00N 48°57' W 057°57'0 0.0
2017-Nov-06 21:30N 48°57' W 057°57'0 0.0
2017-Nov-06 21:00N 48°57' W 057°57'0 0.0
2017-Nov-06 20:30N 48°57' W 057°57'0 0.0
2017-Nov-06 02:30N 48°57' W 057°57'0 0.0
2017-Nov-06 02:00N 48°57' W 057°57'0 0.0
2017-Nov-06 01:30N 48°57' W 057°57'0 0.0
2017-Nov-06 01:00N 48°57' W 057°57'0 0.0
2017-Nov-06 00:30N 48°57' W 057°57'0 0.0
2017-Nov-06 00:00N 48°57' W 057°57'0 0.0
2017-Nov-05 23:30N 48°57' W 057°57'0 0.0
2017-Nov-05 23:00N 48°57' W 057°57'0 0.0
2017-Nov-05 22:30N 48°57' W 057°57'0 0.0
2017-Nov-05 22:00N 48°57' W 057°57'0 0.0
2017-Nov-05 21:30N 48°57' W 057°57'0 0.0
2017-Nov-05 21:00N 48°57' W 057°57'0 0.0
2017-Nov-05 20:30N 48°57' W 057°57'0 0.0
2017-Nov-05 20:00N 48°57' W 057°57'0 0.0
2017-Nov-05 19:30N 48°57' W 057°57'0 0.0
2017-Nov-05 19:00N 48°57' W 057°57'0 0.0
2017-Nov-05 18:30N 48°57' W 057°57'0 0.0
2017-Nov-05 18:00N 48°57' W 057°57'0 0.0
2017-Nov-05 17:30N 48°57' W 057°57'0 0.0
2017-Nov-05 17:00N 48°57' W 057°57'0 0.0
2017-Nov-05 16:29N 48°57' W 057°57'0 0.0
2017-Nov-05 15:59N 48°57' W 057°57'0 0.0
2017-Nov-05 15:29N 48°57' W 057°57'0 0.0
2017-Nov-05 14:59N 48°57' W 057°57'0 0.0
2017-Nov-05 14:29N 48°57' W 057°57'0 0.0
2017-Nov-05 13:56N 48°57' W 057°57'0 0.0
2017-Nov-05 13:26N 48°57' W 057°57'0 0.0
2017-Nov-05 12:59N 48°57' W 057°57'0 0.0
2017-Nov-05 12:29N 48°57' W 057°57'0 0.0
2017-Nov-05 11:56N 48°57' W 057°57'0 0.0
2017-Nov-05 11:29N 48°57' W 057°57'0 0.0
2017-Nov-05 10:59N 48°57' W 057°57'0 0.0
2017-Nov-05 10:29N 48°57' W 057°57'0 0.0
2017-Nov-05 09:59N 48°57' W 057°57'0 0.0
2017-Nov-05 09:29N 48°57' W 057°57'0 0.0
2017-Nov-05 08:59N 48°57' W 057°57'0 0.0
2017-Nov-05 08:29N 48°57' W 057°57'0 0.0
2017-Nov-05 07:59N 48°57' W 057°57'0 0.0
2017-Nov-05 07:29N 48°57' W 057°57'0 0.0
2017-Nov-05 06:59N 48°57' W 057°57'0 0.0
2017-Nov-05 06:29N 48°57' W 057°57'0 0.0
2017-Nov-05 05:59N 48°57' W 057°57'0 0.0
2017-Nov-05 05:29N 48°57' W 057°57'0 0.0
2017-Nov-05 04:59N 48°57' W 057°57'0 0.0
2017-Nov-05 04:29N 48°57' W 057°57'0 0.0
2017-Nov-05 03:59N 48°57' W 057°57'0 0.0
2017-Nov-05 03:29N 48°57' W 057°57'0 0.0
2017-Nov-05 02:59N 48°57' W 057°57'0 0.0
2017-Nov-05 02:29N 48°57' W 057°57'0 0.0
2017-Nov-05 01:59N 48°57' W 057°57'0 0.0
2017-Nov-05 01:29N 48°57' W 057°57'0 0.0
2017-Nov-05 00:59N 48°57' W 057°57'0 0.0
2017-Nov-05 00:29N 48°57' W 057°57'0 0.0
2017-Nov-04 23:59N 48°57' W 057°57'0 0.0
2017-Nov-04 23:29N 48°57' W 057°57'0 0.0
2017-Nov-04 22:59N 48°57' W 057°57'0 0.0
2017-Nov-04 22:29N 48°57' W 057°57'0 0.0
2017-Nov-04 21:59N 48°57' W 057°57'0 0.0
2017-Nov-04 21:29N 48°57' W 057°57'0 0.0
2017-Nov-04 20:59N 48°57' W 057°57'0 0.0
2017-Nov-04 20:29N 48°57' W 057°57'0 0.0
2017-Nov-04 19:59N 48°57' W 057°57'0 0.0
2017-Nov-04 19:29N 48°57' W 057°57'0 0.0
2017-Nov-04 18:59N 48°57' W 057°57'0 0.0
2017-Nov-04 18:29N 48°57' W 057°57'0 0.0
2017-Nov-04 17:59N 48°57' W 057°57'0 0.0
2017-Nov-04 17:29N 48°57' W 057°57'0 0.0
2017-Nov-04 16:59N 48°57' W 057°57'0 0.0
2017-Nov-04 16:29N 48°57' W 057°57'0 0.0
2017-Nov-04 15:59N 48°57' W 057°57'0 0.0
2017-Nov-04 15:29N 48°57' W 057°57'0 0.0
2017-Nov-04 14:59N 48°57' W 057°57'0 0.0
2017-Nov-04 14:29N 48°57' W 057°57'0 0.0
2017-Nov-04 13:59N 48°57' W 057°57'0 0.0
2017-Nov-04 13:29N 48°57' W 057°57'0 0.0
2017-Nov-04 12:59N 48°57' W 057°57'0 0.0
2017-Nov-04 12:29N 48°57' W 057°57'0 0.0
2017-Nov-04 11:59N 48°57' W 057°57'0 0.0
2017-Nov-04 11:29N 48°57' W 057°57'0 0.0
2017-Nov-04 10:59N 48°57' W 057°57'0 0.0
2017-Nov-04 10:29N 48°57' W 057°57'0 0.0
2017-Nov-04 09:59N 48°57' W 057°57'0 0.0
2017-Nov-04 09:29N 48°57' W 057°57'0 0.0
2017-Nov-04 08:59N 48°57' W 057°57'0 0.0
2017-Nov-04 08:29N 48°57' W 057°57'0 0.0
2017-Nov-04 07:59N 48°57' W 057°57'0 0.0
2017-Nov-04 07:29N 48°57' W 057°57'0 0.0
2017-Nov-04 06:59N 48°57' W 057°57'0 0.0
2017-Nov-04 06:29N 48°57' W 057°57'0 0.0
2017-Nov-04 05:59N 48°57' W 057°57'0 0.0
2017-Nov-04 05:29N 48°57' W 057°57'0 0.0
2017-Nov-04 04:59N 48°57' W 057°57'0 0.0
2017-Nov-04 04:29N 48°57' W 057°57'0 0.0
2017-Nov-04 03:59N 48°57' W 057°57'0 0.0
2017-Nov-04 03:28N 48°57' W 057°57'0 0.0
2017-Nov-04 02:58N 48°57' W 057°57'0 0.0
2017-Nov-04 02:28N 48°57' W 057°57'0 0.0
2017-Nov-04 01:58N 48°57' W 057°57'0 0.0
2017-Nov-04 01:28N 48°57' W 057°57'0 0.0
2017-Nov-04 00:58N 48°57' W 057°57'0 0.0
2017-Nov-04 00:28N 48°57' W 057°57'0 0.0
2017-Nov-03 23:58N 48°57' W 057°57'0 0.0
2017-Nov-03 23:28N 48°57' W 057°57'0 0.0
2017-Nov-03 22:58N 48°57' W 057°57'0 0.0
2017-Nov-03 22:28N 48°57' W 057°57'0 0.0
2017-Nov-03 21:58N 48°57' W 057°57'0 0.0
2017-Nov-03 21:28N 48°57' W 057°57'0 0.0
2017-Nov-03 20:58N 48°57' W 057°57'0 0.0
2017-Nov-03 20:28N 48°57' W 057°57'0 0.0
2017-Nov-03 19:58N 48°57' W 057°57'0 0.0
2017-Nov-03 19:28N 48°57' W 057°57'0 0.0
2017-Nov-03 18:58N 48°57' W 057°57'0 0.0
2017-Nov-03 18:25N 48°57' W 057°57'0 0.0
2017-Nov-03 17:58N 48°57' W 057°57'0 0.0
2017-Nov-03 17:28N 48°57' W 057°57'0 0.0
2017-Nov-03 16:58N 48°57' W 057°57'0 0.0
2017-Nov-03 16:25N 48°57' W 057°57'0 0.0
2017-Nov-03 15:58N 48°57' W 057°57'0 0.0
2017-Nov-03 15:28N 48°57' W 057°57'0 0.0
2017-Nov-03 14:58N 48°57' W 057°57'0 0.0
2017-Nov-03 14:28N 48°57' W 057°57'0 0.0
2017-Nov-03 13:55N 48°57' W 057°57'0 0.0
2017-Nov-03 13:28N 48°57' W 057°57'0 0.0
2017-Nov-03 12:58N 48°57' W 057°57'0 0.0
2017-Nov-03 12:25N 48°57' W 057°57'0 0.0
2017-Nov-03 11:55N 48°57' W 057°57'0 0.0
2017-Nov-03 11:28N 48°57' W 057°57'0 0.0
2017-Nov-03 11:00N 48°57' W 057°57'0 0.5
2017-Nov-03 10:30N 48°58' W 057°57'3 6.9
2017-Nov-03 10:01N 48°59' W 058°02'611.4
2017-Nov-03 09:30N 49°03' W 058°08'510.9
2017-Nov-03 09:00N 49°06' W 058°15'611.9
2017-Nov-03 08:30N 49°10' W 058°22'  

Dump ship's entire track history